Home > Products > Valid Products > TAF

000
FTUS46 KSEW 041012 AAB
TAFPAE
TAF AMD
KPAE 041012Z 0410/0506 04004KT P6SM SCT002 BKN060
      TEMPO 0410/0413 BKN002 BKN045
     FM041300 34006KT P6SM SCT008 BKN050
      TEMPO 0413/0417 BKN008 OVC050
     FM041700 36008KT P6SM BKN080
     FM042300 36008KT P6SM SCT080 BKN150=



000
FTUS46 KSEW 041011 AAA
TAFBFI
TAF AMD
KBFI 041011Z 0410/0506 35003KT P6SM BKN014
     FM041300 33005KT P6SM SCT014 BKN080
      TEMPO 0413/0417 BKN014 OVC070
     FM042100 32007KT P6SM SCT080=



000
FTUS46 KSEW 040908 AAA
TAFCLM
TAF AMD
KCLM 040908Z 0409/0506 00000KT 5SM BR FEW008 BKN060
      TEMPO 0409/0413 1SM BR BKN008 OVC070
     FM041300 VRB04KT P6SM SCT010 BKN050
      TEMPO 0413/0417 3SM BR BKN010 OVC050
     FM041800 34006KT P6SM BKN080
     FM042300 31010KT P6SM SCT100 BKN200=



000
FTUS46 KSEW 040905 AAA
TAFPAE
TAF AMD
KPAE 040905Z 0409/0506 36004KT P6SM OVC006
      TEMPO 0409/0413 BKN010 BKN045
     FM041300 34006KT P6SM SCT008 BKN050
      TEMPO 0413/0417 BKN008 OVC050
     FM041700 36008KT P6SM BKN080
     FM042300 36008KT P6SM SCT080 BKN150=



000
FTUS46 KSEW 040903 AAA
TAFSEA
TAF AMD
KSEA 040903Z 0409/0512 33003KT P6SM FEW060
      TEMPO 0410/0414 BKN025 OVC060
     FM041700 33008KT P6SM BKN070
     FM042100 35010KT P6SM SCT080=



000
FTUS46 KSEW 040903 AAA
TAFSEA
TAF AMD
KSEA 040903Z 0409/0512 33003KT P6SM FEW060
      TEMPO 0410/0414 BKN025 OVC060
     FM041700 33008KT P6SM BKN070
     FM042100 35010KT P6SM SCT080=



000
FTUS46 KSEW 040902 AAA
TAFOLM
TAF AMD
KOLM 040902Z 0409/0506 00000KT P6SM OVC009
     FM041200 36003KT P6SM BKN012 BKN060
     FM042000 36005KT P6SM SCT030 BKN080=



000
FTUS46 KSEW 040902 AAA
TAFOLM
TAF AMD
KOLM 040902Z 0409/0506 00000KT P6SM OVC009
     FM041200 36003KT P6SM BKN012 BKN060
     FM042000 36005KT P6SM SCT030 BKN080=



000
FTUS46 KSEW 040838 AAA
TAFBLI
TAF AMD
KBLI 040838Z 0409/0506 00000KT 4SM BR SCT002 BKN100
      TEMPO 0409/0413 1SM BR VV002
     FM041600 00000KT P6SM FEW005 BKN090
     FM041900 02004KT P6SM SCT090=



000
FTUS46 KSEW 040537
TAFSEA
TAF
KSEA 040537Z 0406/0512 33004KT P6SM SCT030 BKN090
      TEMPO 0409/0413 BKN030 OVC090
     FM041700 33008KT P6SM BKN080
     FM042100 35010KT P6SM SCT080=



000
FTUS46 KSEW 040537
TAFHQM
TAF
KHQM 040537Z 0406/0506 00000KT P6SM SKC
     FM040900 05004KT P6SM SCT020 BKN050
     FM041800 25008KT P6SM BKN080
     FM042300 25008KT P6SM SCT100 BKN200=



000
FTUS46 KSEW 040537
TAFOLM
TAF
KOLM 040537Z 0406/0506 00000KT P6SM SKC
     FM041200 36003KT P6SM BKN020 BKN060
     FM042000 36005KT P6SM SCT030 BKN080=



000
FTUS46 KSEW 040537
TAFPAE
TAF
KPAE 040537Z 0406/0506 02004KT P6SM SCT010 SCT045
      TEMPO 0407/0411 BKN010 BKN045
     FM041100 34006KT P6SM SCT020 BKN050
     FM041700 36008KT P6SM BKN080
     FM042300 36008KT P6SM SCT080 BKN150=



000
FTUS46 KSEW 040537
TAFBFI
TAF
KBFI 040537Z 0406/0506 34004KT P6SM BKN040
     FM041500 33008KT P6SM BKN080
     FM042100 32006KT P6SM SCT080=



000
FTUS46 KSEW 040537
TAFBLI
TAF
KBLI 040537Z 0406/0506 00000KT P6SM SCT040 BKN070
     FM040900 VRB03KT P6SM SCT020 BKN050
     FM041800 02004KT P6SM BKN080=



000
FTUS46 KSEW 040537
TAFCLM
TAF
KCLM 040537Z 0406/0506 19004KT P6SM BKN050 OVC090
     FM040900 24003KT P6SM BKN020 BKN050
      TEMPO 0409/0413 SCT020 BKN050
     FM041800 34008KT P6SM BKN080=



000
FTUS46 KSEW 040408 AAA
TAFPAE
TAF AMD
KPAE 040408Z 0404/0424 36005KT P6SM SCT007 BKN021
     FM040900 34006KT P6SM SCT020 BKN050
     FM041700 36008KT P6SM BKN080=



000
FTUS46 KSEW 040308 AAA
TAFSEA
TAF AMD
KSEA 040308Z 0403/0506 24006KT P6SM FEW035 SCT070 BKN200
     FM040600 35006KT P6SM SCT020 BKN050
     FM041700 33008KT P6SM BKN080
     FM042100 35010KT P6SM SCT080=



000
FTUS46 KSEW 040308 AAA
TAFSEA
TAF AMD
KSEA 040308Z 0403/0506 24006KT P6SM FEW035 SCT070 BKN200
     FM040600 35006KT P6SM SCT020 BKN050
     FM041700 33008KT P6SM BKN080
     FM042100 35010KT P6SM SCT080=



000
FTUS46 KSEW 032347
TAFHQM
TAF
KHQM 032347Z 0400/0424 22010KT P6SM BKN100
     FM040300 23008KT P6SM SCT050 BKN100
     FM040900 05004KT P6SM SCT020 BKN050
     FM041800 25008KT P6SM BKN080=



000
FTUS46 KSEW 032347
TAFBLI
TAF
KBLI 032347Z 0400/0424 17008KT P6SM -SHRA BKN040 BKN060
     FM040100 VRB04KT P6SM BKN060
     FM040400 14003KT P6SM SCT060 BKN100
     FM040900 VRB03KT P6SM SCT020 BKN050
     FM041800 02003KT P6SM BKN080=



000
FTUS46 KSEW 032347
TAFSEA
TAF
KSEA 032347Z 0400/0506 23008KT P6SM -SHRA BKN040 BKN080
     FM040300 29006KT P6SM SCT060 BKN080
     FM040900 01006KT P6SM SCT020 BKN050
     FM041700 33008KT P6SM BKN080
     FM042100 35010KT P6SM SCT080=



000
FTUS46 KSEW 032347
TAFPAE
TAF
KPAE 032347Z 0400/0424 25008KT P6SM -SHRA BKN035 BKN060
     FM040200 34004KT P6SM BKN060
     FM040400 VRB04KT P6SM SCT060 BKN100
     FM040900 34006KT P6SM SCT020 BKN050
     FM041700 36008KT P6SM BKN080=



000
FTUS46 KSEW 032347
TAFBLI
TAF
KBLI 032347Z 0400/0424 17008KT P6SM -SHRA BKN040 BKN060
     FM040100 VRB04KT P6SM BKN060
     FM040400 14003KT P6SM SCT060 BKN100
     FM040900 VRB03KT P6SM SCT020 BKN050
     FM041800 02003KT P6SM BKN080=



000
FTUS46 KSEW 032347
TAFSEA
TAF
KSEA 032347Z 0400/0506 23008KT P6SM -SHRA BKN040 BKN080
     FM040300 29006KT P6SM SCT060 BKN080
     FM040900 01006KT P6SM SCT020 BKN050
     FM041700 33008KT P6SM BKN080
     FM042100 35010KT P6SM SCT080=



000
FTUS46 KSEW 032347
TAFCLM
TAF
KCLM 032347Z 0400/0424 VRB04KT P6SM -SHRA BKN060 OVC080
     FM040400 24003KT P6SM BKN060
     FM040900 24003KT P6SM BKN020 BKN050
     FM041800 34008KT P6SM BKN080=



000
FTUS46 KSEW 032347
TAFOLM
TAF
KOLM 032347Z 0400/0424 26007KT P6SM -SHRA BKN040 BKN060
     FM040200 21003KT P6SM BKN060
     FM040600 21006KT P6SM SCT060 BKN100
     FM041200 36003KT P6SM BKN020 BKN060=



000
FTUS46 KSEW 032347
TAFBFI
TAF
KBFI 032347Z 0400/0424 22006KT P6SM -SHRA BKN040 BKN060
     FM040300 VRB03KT P6SM SCT060 BKN080
     FM040900 VRB03KT P6SM SCT020 BKN050
     FM041500 33008KT P6SM BKN080
     FM042100 32006KT P6SM SCT080=



000
FTUS46 KSEW 032347
TAFHQM
TAF
KHQM 032347Z 0400/0424 22010KT P6SM BKN100
     FM040300 23008KT P6SM SCT050 BKN100
     FM040900 05004KT P6SM SCT020 BKN050
     FM041800 25008KT P6SM BKN080=



000
FTUS46 KSEW 032347
TAFBFI
TAF
KBFI 032347Z 0400/0424 22006KT P6SM -SHRA BKN040 BKN060
     FM040300 VRB03KT P6SM SCT060 BKN080
     FM040900 VRB03KT P6SM SCT020 BKN050
     FM041500 33008KT P6SM BKN080
     FM042100 32006KT P6SM SCT080=



000
FTUS46 KSEW 032347
TAFPAE
TAF
KPAE 032347Z 0400/0424 25008KT P6SM -SHRA BKN035 BKN060
     FM040200 34004KT P6SM BKN060
     FM040400 VRB04KT P6SM SCT060 BKN100
     FM040900 34006KT P6SM SCT020 BKN050
     FM041700 36008KT P6SM BKN080=



000
FTUS46 KSEW 032347
TAFCLM
TAF
KCLM 032347Z 0400/0424 VRB04KT P6SM -SHRA BKN060 OVC080
     FM040400 24003KT P6SM BKN060
     FM040900 24003KT P6SM BKN020 BKN050
     FM041800 34008KT P6SM BKN080=



000
FTUS46 KSEW 032347
TAFOLM
TAF
KOLM 032347Z 0400/0424 26007KT P6SM -SHRA BKN040 BKN060
     FM040200 21003KT P6SM BKN060
     FM040600 21006KT P6SM SCT060 BKN100
     FM041200 36003KT P6SM BKN020 BKN060=



000
FTUS46 KSEW 032305 AAB
TAFBFI
TAF AMD
KBFI 032305Z 0323/0418 22006KT P6SM -SHRA BKN040 BKN060
     FM040300 VRB03KT P6SM SCT060 BKN100
     FM040900 VRB03KT P6SM SCT020 BKN050
     FM041500 33008KT P6SM SCT080=



000
FTUS46 KSEW 032304 AAB
TAFSEA
TAF AMD
KSEA 032304Z 0323/0424 23008KT P6SM -SHRA BKN040 BKN080
     FM040300 32006KT P6SM SCT060 BKN100
     FM040900 01006KT P6SM SCT020 BKN050
     FM041700 33008KT P6SM SCT080=



000
FTUS46 KSEW 032046 AAA
TAFPAE
TAF AMD
KPAE 032046Z 0321/0418 23005KT P6SM VCSH SCT035 BKN080
     FM040100 34004KT P6SM BKN060
     FM040400 VRB04KT P6SM SCT060 BKN100
     FM040900 34006KT P6SM SCT020 BKN050
     FM041700 36008KT P6SM SCT080=



000
FTUS46 KSEW 032045 AAA
TAFBFI
TAF AMD
KBFI 032045Z 0321/0418 22006KT P6SM VCSH FEW030 BKN060
     FM040000 VRB04KT P6SM BKN060
     FM040300 VRB03KT P6SM SCT060 BKN100
     FM040900 VRB03KT P6SM SCT020 BKN050
     FM041500 33008KT P6SM SCT080=



000
FTUS46 KSEW 032045 AAA
TAFBFI
TAF AMD
KBFI 032045Z 0321/0418 22006KT P6SM VCSH FEW030 BKN060
     FM040000 VRB04KT P6SM BKN060
     FM040300 VRB03KT P6SM SCT060 BKN100
     FM040900 VRB03KT P6SM SCT020 BKN050
     FM041500 33008KT P6SM SCT080=



000
FTUS46 KSEW 032044 AAA
TAFSEA
TAF AMD
KSEA 032044Z 0321/0424 22008KT P6SM SCT030 BKN200
     FM040000 VRB04KT P6SM BKN060
     FM040300 32006KT P6SM SCT060 BKN100
     FM040900 01006KT P6SM SCT020 BKN050
     FM041700 33008KT P6SM SCT080=



000
FTUS46 KSEW 031747
TAFBFI
TAF
KBFI 031747Z 0318/0418 20006KT P6SM VCSH SCT015 BKN025
     FM031900 24008KT P6SM -SHRA BKN020
     FM032000 22006KT P6SM VCSH BKN030 BKN080
     FM040000 VRB04KT P6SM BKN060
     FM040300 VRB03KT P6SM SCT060 BKN100
     FM040900 VRB03KT P6SM SCT020 BKN050
     FM041500 33008KT P6SM SCT080=



000
FTUS46 KSEW 031747
TAFPAE
TAF
KPAE 031747Z 0318/0418 15005KT P6SM VCSH BKN015 OVC025
     FM032000 17006KT P6SM -SHRA BKN020
     FM032100 23005KT P6SM VCSH BKN030 BKN080
     FM040100 34004KT P6SM BKN060
     FM040400 VRB04KT P6SM SCT060 BKN100
     FM040900 34006KT P6SM SCT020 BKN050
     FM041700 36008KT P6SM SCT080=



000
FTUS46 KSEW 031747
TAFHQM
TAF
KHQM 031747Z 0318/0418 22008KT P6SM -SHRA BKN050 OVC080
      TEMPO 0318/0321 3SM -RA BR BKN030 OVC040
     FM040100 23008KT P6SM SCT050 BKN100
     FM040900 05004KT P6SM SCT020 BKN050=



000
FTUS46 KSEW 031747
TAFOLM
TAF
KOLM 031747Z 0318/0418 24008KT P6SM -SHRA BKN040 BKN060
     FM032000 22008KT P6SM VCSH BKN040 BKN080
     FM040000 26007KT P6SM BKN060
     FM040600 21006KT P6SM SCT060 BKN100
     FM041200 36003KT P6SM BKN020 BKN060=



000
FTUS46 KSEW 031747
TAFBLI
TAF
KBLI 031747Z 0318/0418 17008KT P6SM -SHRA BKN030 OVC060
     FM031900 17008KT P6SM VCSH BKN030 BKN080
     FM040100 VRB04KT P6SM BKN060
     FM040400 14003KT P6SM SCT060 BKN100
     FM040900 VRB03KT P6SM SCT020 BKN050=



000
FTUS46 KSEW 031747
TAFSEA
TAF
KSEA 031747Z 0318/0424 21006KT P6SM FEW007 BKN012
     FM031900 24008KT P6SM -SHRA BKN020
     FM032000 22008KT P6SM VCSH BKN030 BKN080
     FM040000 VRB04KT P6SM BKN060
     FM040300 32006KT P6SM SCT060 BKN100
     FM040900 01006KT P6SM SCT020 BKN050
     FM041700 33008KT P6SM SCT080=



000
FTUS46 KSEW 031747
TAFCLM
TAF
KCLM 031747Z 0318/0418 00000KT P6SM -SHRA BKN060 BKN100
     FM031900 35003KT P6SM VCSH SCT040 BKN100
     FM040000 VRB04KT P6SM BKN060
     FM040900 24003KT P6SM BKN020 BKN050=



000
FTUS46 KSEW 031502 AAA
TAFSEA
TAF AMD
KSEA 031502Z 0315/0418 17004KT P6SM FEW007 BKN012
      TEMPO 0315/0316 BKN006 OVC012
     FM031800 22008KT P6SM VCSH BKN030 BKN080
     FM040200 32006KT P6SM SCT060 BKN100
     FM040900 01006KT P6SM SCT020 BKN050=



000
FTUS46 KSEW 031502 AAA
TAFSEA
TAF AMD
KSEA 031502Z 0315/0418 17004KT P6SM FEW007 BKN012
      TEMPO 0315/0316 BKN006 OVC012
     FM031800 22008KT P6SM VCSH BKN030 BKN080
     FM040200 32006KT P6SM SCT060 BKN100
     FM040900 01006KT P6SM SCT020 BKN050=



000
FTUS46 KSEW 031127
TAFBFI
TAF
KBFI 031127Z 0312/0412 14004KT P6SM OVC016
      TEMPO 0312/0315 BKN008 OVC012
     FM031800 18007KT P6SM VCSH BKN035 OVC080
     FM040200 33005KT P6SM SCT060 BKN120
     FM040900 00000KT P6SM SCT025 BKN060=



000
FTUS46 KSEW 031127
TAFSEA
TAF
KSEA 031127Z 0312/0418 19004KT P6SM FEW007 OVC012
      TEMPO 0312/0315 BKN006 OVC012
     FM031800 22008KT P6SM VCSH BKN030 BKN080
     FM040200 32006KT P6SM SCT060 BKN100
     FM040900 01006KT P6SM SCT020 BKN050=



000
FTUS46 KSEW 031127
TAFCLM
TAF
KCLM 031127Z 0312/0412 24006KT P6SM SCT050
      TEMPO 0314/0318 -SHRA BKN020 BKN050
     FM031800 33006KT P6SM VCSH BKN035 BKN080
     FM040100 30006KT P6SM SCT050 BKN100
     FM040900 28004KT P6SM SCT020 BKN050=



000
FTUS46 KSEW 031127
TAFBLI
TAF
KBLI 031127Z 0312/0412 18004KT P6SM FEW024 BKN035
      TEMPO 0313/0317 BKN025 OVC040
     FM031800 17008KT P6SM VCSH BKN035 OVC080
     FM040200 17004KT P6SM SCT050 BKN100
     FM040900 17006KT P6SM SCT025 BKN050=



000
FTUS46 KSEW 031127
TAFPAE
TAF
KPAE 031127Z 0312/0412 00000KT P6SM SCT030 BKN080
      TEMPO 0313/0317 BKN015 OVC040
     FM031800 22008KT P6SM VCSH BKN035 OVC080
     FM040200 34006KT P6SM SCT040 BKN090
     FM040900 01005KT P6SM SCT020 BKN050=



000
FTUS46 KSEW 031127
TAFHQM
TAF
KHQM 031127Z 0312/0412 07004KT P6SM SKC
      TEMPO 0312/0314 3SM BR
     FM031400 VRB06KT P6SM SCT030 BKN060
      TEMPO 0314/0318 3SM BR BKN030 OVC060
     FM031800 22008KT P6SM VCSH BKN050 BKN100
     FM040100 26008KT P6SM SCT050 BKN100
     FM040900 24006KT P6SM SCT020 BKN050=



000
FTUS46 KSEW 031127
TAFOLM
TAF
KOLM 031127Z 0312/0412 26005KT P6SM FEW030
      TEMPO 0314/0318 BKN030 BKN060
     FM031800 23008KT P6SM VCSH BKN040 BKN080
     FM040200 31004KT P6SM SCT050 BKN100
     FM040900 00000KT P6SM SCT020 BKN050=



000
FTUS46 KSEW 031009 AAA
TAFHQM
TAF AMD
KHQM 031009Z 0310/0406 00000KT P6SM SCT060
      TEMPO 0310/0313 3SM BR
     FM031300 23006KT P6SM BKN030 OVC060
      TEMPO 0313/0316 SCT030 BKN060
     FM031800 22008KT P6SM VCSH BKN050 BKN100
     FM040100 26008KT P6SM SCT050 BKN100=



000
FTUS46 KSEW 031009 AAA
TAFHQM
TAF AMD
KHQM 031009Z 0310/0406 00000KT P6SM SCT060
      TEMPO 0310/0313 3SM BR
     FM031300 23006KT P6SM BKN030 OVC060
      TEMPO 0313/0316 SCT030 BKN060
     FM031800 22008KT P6SM VCSH BKN050 BKN100
     FM040100 26008KT P6SM SCT050 BKN100=



000
FTUS46 KSEW 031004 AAA
TAFBFI
TAF AMD
KBFI 031004Z 0310/0406 13003KT P6SM SCT008 OVC012
      TEMPO 0311/0315 BKN008 OVC012
     FM031800 18008KT P6SM BKN035 OVC080
     FM040200 33005KT P6SM SCT060 BKN120=



000
FTUS46 KSEW 031003 AAB
TAFSEA
TAF AMD
KSEA 031003Z 0310/0412 00000KT P6SM FEW007 BKN010
     FM031100 20005KT P6SM SCT006 BKN012
      TEMPO 0311/0314 BKN006 OVC012
     FM031800 22008KT P6SM BKN030 BKN080
     FM040200 32006KT P6SM SCT060 BKN100=



000
FTUS46 KSEW 031003 AAB
TAFSEA
TAF AMD
KSEA 031003Z 0310/0412 00000KT P6SM FEW007 BKN010
     FM031100 20005KT P6SM SCT006 BKN012
      TEMPO 0311/0314 BKN006 OVC012
     FM031800 22008KT P6SM BKN030 BKN080
     FM040200 32006KT P6SM SCT060 BKN100=



000
FTUS46 KSEW 030901 AAA
TAFSEA
TAF AMD
KSEA 030901Z 0309/0412 16004KT P6SM SKC
      TEMPO 0309/0311 SCT025 BKN045
     FM031100 20005KT P6SM BKN025 OVC045
      TEMPO 0311/0314 SCT025 BKN045
     FM031800 22008KT P6SM BKN040 BKN080
     FM040200 32006KT P6SM SCT060 BKN100=



000
FTUS46 KSEW 030857 AAA
TAFPAE
TAF AMD
KPAE 030857Z 0309/0406 12004KT 6SM BR SCT001 BKN050
      TEMPO 0309/0311 1SM BR BKN001 OVC050
     FM031100 17005KT P6SM SCT005 BKN025
      TEMPO 0311/0315 2SM BR BKN005 OVC020
     FM031800 22008KT P6SM BKN035 OVC080
     FM040200 34006KT P6SM SCT040 BKN090=



000
FTUS46 KSEW 030857 AAA
TAFPAE
TAF AMD
KPAE 030857Z 0309/0406 12004KT 6SM BR SCT001 BKN050
      TEMPO 0309/0311 1SM BR BKN001 OVC050
     FM031100 17005KT P6SM SCT005 BKN025
      TEMPO 0311/0315 2SM BR BKN005 OVC020
     FM031800 22008KT P6SM BKN035 OVC080
     FM040200 34006KT P6SM SCT040 BKN090=



000
FTUS46 KSEW 030538
TAFOLM
TAF
KOLM 030538Z 0306/0406 22004KT P6SM SCT060
     FM031100 20008KT P6SM BKN025 OVC040
      TEMPO 0311/0314 SCT030 BKN060
     FM031800 23008KT P6SM BKN040 BKN080
     FM040200 31004KT P6SM SCT050 BKN100=



000
FTUS46 KSEW 030538
TAFBLI
TAF
KBLI 030538Z 0306/0406 00000KT P6SM SCT070 BKN110
     FM030900 17007KT P6SM BKN025 OVC040
      TEMPO 0309/0313 SCT030 BKN050
     FM031800 17010KT P6SM BKN035 OVC080
     FM040200 17004KT P6SM SCT050 BKN100=



000
FTUS46 KSEW 030538
TAFCLM
TAF
KCLM 030538Z 0306/0406 00000KT P6SM SCT050 BKN080
      TEMPO 0306/0309 -SHRA BKN030 OVC060
     FM031100 25005KT P6SM BKN010 OVC040
      TEMPO 0311/0314 SCT015 BKN050
     FM031800 33006KT P6SM BKN035 BKN080
     FM040100 30006KT P6SM SCT050 BKN100=



000
FTUS46 KSEW 030538
TAFBFI
TAF
KBFI 030538Z 0306/0406 00000KT P6SM SCT080
     FM030800 20005KT P6SM BKN030 OVC050
      TEMPO 0308/0312 SCT030 BKN050
     FM031800 18008KT P6SM BKN040 OVC080
     FM040200 33005KT P6SM SCT060 BKN120=



000
FTUS46 KSEW 030538
TAFHQM
TAF
KHQM 030538Z 0306/0406 00000KT P6SM SCT060
     FM031100 23006KT P6SM BKN030 OVC060
      TEMPO 0311/0315 SCT030 BKN060
     FM031800 22008KT P6SM VCSH BKN050 BKN100
     FM040100 26008KT P6SM SCT050 BKN100=



000
FTUS46 KSEW 030538
TAFSEA
TAF
KSEA 030538Z 0306/0412 VRB04KT P6SM VCSH FEW045 SCT090
     FM030800 22006KT P6SM BKN025 OVC045
      TEMPO 0308/0312 SCT025 BKN045
     FM031800 22008KT P6SM BKN040 BKN080
     FM040200 32006KT P6SM SCT060 BKN100=



000
FTUS46 KSEW 030538
TAFPAE
TAF
KPAE 030538Z 0306/0406 VRB04KT P6SM VCSH FEW060 BKN110
     FM030800 19006KT P6SM BKN025 OVC045
      TEMPO 0308/0312 SCT025 BKN050
     FM031800 22008KT P6SM BKN035 OVC080
     FM040200 34006KT P6SM SCT040 BKN090=



000
FTUS46 KSEW 030538
TAFHQM
TAF
KHQM 030538Z 0306/0406 00000KT P6SM SCT060
     FM031100 23006KT P6SM BKN030 OVC060
      TEMPO 0311/0315 SCT030 BKN060
     FM031800 22008KT P6SM VCSH BKN050 BKN100
     FM040100 26008KT P6SM SCT050 BKN100=



000
FTUS46 KSEW 030538
TAFCLM
TAF
KCLM 030538Z 0306/0406 00000KT P6SM SCT050 BKN080
      TEMPO 0306/0309 -SHRA BKN030 OVC060
     FM031100 25005KT P6SM BKN010 OVC040
      TEMPO 0311/0314 SCT015 BKN050
     FM031800 33006KT P6SM BKN035 BKN080
     FM040100 30006KT P6SM SCT050 BKN100=



000
FTUS46 KSEW 030538
TAFSEA
TAF
KSEA 030538Z 0306/0412 VRB04KT P6SM VCSH FEW045 SCT090
     FM030800 22006KT P6SM BKN025 OVC045
      TEMPO 0308/0312 SCT025 BKN045
     FM031800 22008KT P6SM BKN040 BKN080
     FM040200 32006KT P6SM SCT060 BKN100=



000
FTUS46 KSEW 030538
TAFPAE
TAF
KPAE 030538Z 0306/0406 VRB04KT P6SM VCSH FEW060 BKN110
     FM030800 19006KT P6SM BKN025 OVC045
      TEMPO 0308/0312 SCT025 BKN050
     FM031800 22008KT P6SM BKN035 OVC080
     FM040200 34006KT P6SM SCT040 BKN090=



000
FTUS46 KSEW 030538
TAFBFI
TAF
KBFI 030538Z 0306/0406 00000KT P6SM SCT080
     FM030800 20005KT P6SM BKN030 OVC050
      TEMPO 0308/0312 SCT030 BKN050
     FM031800 18008KT P6SM BKN040 OVC080
     FM040200 33005KT P6SM SCT060 BKN120=



000
FTUS46 KSEW 030538
TAFBLI
TAF
KBLI 030538Z 0306/0406 00000KT P6SM SCT070 BKN110
     FM030900 17007KT P6SM BKN025 OVC040
      TEMPO 0309/0313 SCT030 BKN050
     FM031800 17010KT P6SM BKN035 OVC080
     FM040200 17004KT P6SM SCT050 BKN100=



000
FTUS46 KSEW 030307 AAB
TAFPAE
TAF AMD
KPAE 030307Z 0303/0324 03005KT P6SM SCT060 OVC070
      TEMPO 0303/0306 5SM -SHRA OVC060
     FM030700 VRB04KT P6SM SCT030 BKN060
     FM031000 21008KT P6SM BKN025 OVC040
     FM031800 22008KT P6SM BKN035 OVC080=



000
FTUS46 KSEW 030307 AAB
TAFPAE
TAF AMD
KPAE 030307Z 0303/0324 03005KT P6SM SCT060 OVC070
      TEMPO 0303/0306 5SM -SHRA OVC060
     FM030700 VRB04KT P6SM SCT030 BKN060
     FM031000 21008KT P6SM BKN025 OVC040
     FM031800 22008KT P6SM BKN035 OVC080=



000
FTUS46 KSEW 030204 AAA
TAFBFI
TAF AMD
KBFI 030204Z 0302/0324 31005KT P6SM SCT045 SCT080
      TEMPO 0302/0305 24008G18KT P6SM -SHRA BKN040 BKN060
     FM030500 VRB06KT P6SM -SHRA SCT015 BKN035 BKN050
     FM030800 17008KT P6SM BKN030 OVC040
     FM031800 18008KT P6SM BKN040 OVC080=



000
FTUS46 KSEW 030203 AAA
TAFSEA
TAF AMD
KSEA 030203Z 0302/0406 35007KT P6SM SCT045 BKN090 BKN230
      TEMPO 0302/0305 25009G18KT P6SM -SHRA BKN040 BKN060
     FM030500 VRB06KT P6SM VCSH SCT020 BKN050
     FM030800 22008KT P6SM BKN025 OVC040
     FM031800 22008KT P6SM BKN035 OVC080
     FM040200 02006KT P6SM SCT060 BKN100=



000
FTUS46 KSEW 030024 AAA
TAFOLM
TAF AMD
KOLM 030024Z 0300/0324 23008KT P6SM SCT050 BKN070
      TEMPO 0300/0303 26010G20KT P6SM -RA BKN030 BKN060
     FM031300 20008KT P6SM BKN025 OVC040
     FM031800 23008KT P6SM BKN035 OVC080=



000
FTUS46 KSEW 030024 AAA
TAFOLM
TAF AMD
KOLM 030024Z 0300/0324 23008KT P6SM SCT050 BKN070
      TEMPO 0300/0303 26010G20KT P6SM -RA BKN030 BKN060
     FM031300 20008KT P6SM BKN025 OVC040
     FM031800 23008KT P6SM BKN035 OVC080=



000
FTUS46 KSEW 030023 AAA
TAFPAE
TAF AMD
KPAE 030023Z 0300/0324 18008KT P6SM FEW040 BKN080
      TEMPO 0300/0303 25010G20KT P6SM -TSRA BKN035CB BKN060
     FM030300 21008KT P6SM -SHRA SCT015 BKN035 BKN050
     FM031000 21008KT P6SM BKN025 OVC040
     FM031800 22008KT P6SM BKN035 OVC080=



000
FTUS46 KSEW 030023 AAA
TAFPAE
TAF AMD
KPAE 030023Z 0300/0324 18008KT P6SM FEW040 BKN080
      TEMPO 0300/0303 25010G20KT P6SM -TSRA BKN035CB BKN060
     FM030300 21008KT P6SM -SHRA SCT015 BKN035 BKN050
     FM031000 21008KT P6SM BKN025 OVC040
     FM031800 22008KT P6SM BKN035 OVC080=



000
FTUS46 KSEW 022345
TAFSEA
TAF
KSEA 022345Z 0300/0406 19010KT P6SM FEW060 BKN100
      TEMPO 0300/0303 25010G20KT P6SM RA BKN040 BKN060
     FM030400 21008KT P6SM -SHRA SCT015 BKN035 BKN050
     FM031300 21008KT P6SM BKN025 OVC040
     FM031800 22008KT P6SM BKN035 OVC080
     FM040200 02006KT P6SM SCT060 BKN100=



000
FTUS46 KSEW 022345
TAFOLM
TAF
KOLM 022345Z 0300/0324 23008KT P6SM SCT050 BKN070
      TEMPO 0300/0303 25010G20KT P6SM -RA BKN030 BKN060
     FM031300 20008KT P6SM BKN025 OVC040
     FM031800 23008KT P6SM BKN035 OVC080=



000
FTUS46 KSEW 022345
TAFPAE
TAF
KPAE 022345Z 0300/0324 18008KT P6SM FEW040 BKN080
      TEMPO 0300/0303 25010G20KT P6SM RA BKN035 BKN060
     FM030300 21008KT P6SM -SHRA SCT015 BKN035 BKN050
     FM031000 21008KT P6SM BKN025 OVC040
     FM031800 22008KT P6SM BKN035 OVC080=



000
FTUS46 KSEW 022345
TAFBLI
TAF
KBLI 022345Z 0300/0324 16008KT P6SM SCT030 BKN040
     FM031000 17008KT P6SM BKN025 OVC040
     FM031800 17010KT P6SM BKN035 OVC080=



000
FTUS46 KSEW 022345
TAFBFI
TAF
KBFI 022345Z 0300/0324 18008KT P6SM FEW040 BKN100
      TEMPO 0300/0303 21010G20KT P6SM RA BKN040 BKN060
     FM030400 19008KT P6SM -SHRA SCT015 BKN035 BKN050
     FM031300 17008KT P6SM BKN030 OVC040
     FM031800 18008KT P6SM BKN040 OVC080=



000
FTUS46 KSEW 022345
TAFHQM
TAF
KHQM 022345Z 0300/0324 22012KT P6SM SCT060
     FM030600 24006KT P6SM BKN060
     FM031200 23006KT P6SM BKN035 OVC080=



000
FTUS46 KSEW 022345
TAFCLM
TAF
KCLM 022345Z 0300/0324 26006KT P6SM BKN040 BKN070
      TEMPO 0300/0303 2SM -SHRA BKN035 OVC060
     FM030300 26008KT P6SM -SHRA BKN025 BKN060
     FM031400 25005KT P6SM BKN010 OVC040
     FM031800 33006KT P6SM BKN035 BKN080=



000
FTUS46 KSEW 022345
TAFBFI
TAF
KBFI 022345Z 0300/0324 18008KT P6SM FEW040 BKN100
      TEMPO 0300/0303 21010G20KT P6SM RA BKN040 BKN060
     FM030400 19008KT P6SM -SHRA SCT015 BKN035 BKN050
     FM031300 17008KT P6SM BKN030 OVC040
     FM031800 18008KT P6SM BKN040 OVC080=



000
FTUS46 KSEW 022345
TAFSEA
TAF
KSEA 022345Z 0300/0406 19010KT P6SM FEW060 BKN100
      TEMPO 0300/0303 25010G20KT P6SM RA BKN040 BKN060
     FM030400 21008KT P6SM -SHRA SCT015 BKN035 BKN050
     FM031300 21008KT P6SM BKN025 OVC040
     FM031800 22008KT P6SM BKN035 OVC080
     FM040200 02006KT P6SM SCT060 BKN100=



000
FTUS46 KSEW 022345
TAFCLM
TAF
KCLM 022345Z 0300/0324 26006KT P6SM BKN040 BKN070
      TEMPO 0300/0303 2SM -SHRA BKN035 OVC060
     FM030300 26008KT P6SM -SHRA BKN025 BKN060
     FM031400 25005KT P6SM BKN010 OVC040
     FM031800 33006KT P6SM BKN035 BKN080=



000
FTUS46 KSEW 022345
TAFOLM
TAF
KOLM 022345Z 0300/0324 23008KT P6SM SCT050 BKN070
      TEMPO 0300/0303 25010G20KT P6SM -RA BKN030 BKN060
     FM031300 20008KT P6SM BKN025 OVC040
     FM031800 23008KT P6SM BKN035 OVC080=



000
FTUS46 KSEW 022345
TAFBLI
TAF
KBLI 022345Z 0300/0324 16008KT P6SM SCT030 BKN040
     FM031000 17008KT P6SM BKN025 OVC040
     FM031800 17010KT P6SM BKN035 OVC080=



000
FTUS46 KSEW 022345
TAFHQM
TAF
KHQM 022345Z 0300/0324 22012KT P6SM SCT060
     FM030600 24006KT P6SM BKN060
     FM031200 23006KT P6SM BKN035 OVC080=



000
FTUS46 KSEW 022345
TAFPAE
TAF
KPAE 022345Z 0300/0324 18008KT P6SM FEW040 BKN080
      TEMPO 0300/0303 25010G20KT P6SM RA BKN035 BKN060
     FM030300 21008KT P6SM -SHRA SCT015 BKN035 BKN050
     FM031000 21008KT P6SM BKN025 OVC040
     FM031800 22008KT P6SM BKN035 OVC080=



000
FTUS46 KSEW 022103 AAB
TAFSEA
TAF AMD
KSEA 022103Z 0221/0324 21010KT P6SM BKN060 BKN100
      TEMPO 0221/0224 25010G20KT P6SM RA BKN040 BKN060
     FM030600 21008KT P6SM -SHRA SCT015 BKN035 BKN050
     FM031300 21008KT P6SM BKN025 OVC040
     FM031800 22008KT P6SM BKN035 OVC080=



000
FTUS46 KSEW 022103 AAB
TAFSEA
TAF AMD
KSEA 022103Z 0221/0324 21010KT P6SM BKN060 BKN100
      TEMPO 0221/0224 25010G20KT P6SM RA BKN040 BKN060
     FM030600 21008KT P6SM -SHRA SCT015 BKN035 BKN050
     FM031300 21008KT P6SM BKN025 OVC040
     FM031800 22008KT P6SM BKN035 OVC080=



000
FTUS46 KSEW 021917 AAA
TAFSEA
TAF AMD
KSEA 021917Z 0219/0324 21010KT P6SM -SHRA BKN040 BKN090
     FM030600 21008KT P6SM -SHRA SCT015 BKN035 BKN050
     FM031300 21008KT P6SM BKN025 OVC040
     FM031800 22008KT P6SM BKN035 OVC080=



000
FTUS46 KSEW 021755
TAFCLM
TAF
KCLM 021755Z 0218/0318 VRB03KT P6SM SCT035 SCT060 BKN080
     FM022100 26006KT P6SM -SHRA BKN035 OVC060
     FM031200 25005KT P6SM BKN020 OVC060=



000
FTUS46 KSEW 021755
TAFBLI
TAF
KBLI 021755Z 0218/0318 16008KT P6SM -SHRA SCT010 BKN030
     FM031200 17006KT P6SM -SHRA BKN015 OVC040=



000
FTUS46 KSEW 021755
TAFHQM
TAF
KHQM 021755Z 0218/0318 19010KT 5SM BR BKN060 OVC080
     FM022000 21008KT P6SM BKN025 OVC040
     FM030000 22008KT P6SM -SHRA SCT015 BKN035 BKN060
     FM030600 24008KT P6SM -SHRA BKN025 OVC050=



000
FTUS46 KSEW 021755
TAFPAE
TAF
KPAE 021755Z 0218/0318 16008KT P6SM BKN040 OVC050
     FM030600 18008KT P6SM -SHRA SCT020 BKN025 BKN050=



000
FTUS46 KSEW 021755
TAFOLM
TAF
KOLM 021755Z 0218/0318 21008KT P6SM BKN015
     FM022200 21008KT P6SM SCT020 BKN035 OVC050
     FM030600 21008KT P6SM SCT025 BKN040 BKN060
     FM031400 20005KT P6SM BKN010 OVC040=



000
FTUS46 KSEW 021755
TAFBFI
TAF
KBFI 021755Z 0218/0318 20005KT P6SM BKN015
     FM021900 18008KT P6SM BKN040 BKN090
     FM030600 18008KT P6SM -SHRA SCT015 BKN035 BKN050
     FM031300 17008KT P6SM BKN030 OVC040=



000
FTUS46 KSEW 021755
TAFSEA
TAF
KSEA 021755Z 0218/0324 23008KT P6SM SCT012 BKN050
     FM021900 21010KT P6SM BKN040 BKN090
     FM030600 21008KT P6SM -SHRA SCT015 BKN035 BKN050
     FM031300 21008KT P6SM BKN025 OVC040
     FM031800 22008KT P6SM BKN035 OVC080=



000
FTUS46 KSEW 021510 AAA
TAFSEA
TAF AMD
KSEA 021510Z 0215/0318 21009KT P6SM SCT008 BKN090
     FM021700 18012KT P6SM -SHRA BKN015 OVC030
     FM022000 21014KT P6SM -SHRA SCT015 BKN035 BKN050
     FM031300 21010KT P6SM BKN025 OVC040=



000
FTUS46 KSEW 021510 AAA
TAFSEA
TAF AMD
KSEA 021510Z 0215/0318 21009KT P6SM SCT008 BKN090
     FM021700 18012KT P6SM -SHRA BKN015 OVC030
     FM022000 21014KT P6SM -SHRA SCT015 BKN035 BKN050
     FM031300 21010KT P6SM BKN025 OVC040=



000
FTUS46 KSEW 021126
TAFBFI
TAF
KBFI 021126Z 0212/0312 17008KT P6SM SCT022 BKN060
      TEMPO 0212/0216 BKN022 OVC060
     FM021600 17008KT P6SM -SHRA BKN020 OVC035
     FM022000 19010KT P6SM -SHRA SCT020 BKN040 BKN060=



000
FTUS46 KSEW 021126
TAFBLI
TAF
KBLI 021126Z 0212/0312 16008KT P6SM -SHRA BKN020 OVC030
      TEMPO 0213/0217 4SM -TSRA BKN020CB OVC030
     FM021800 18010KT P6SM -SHRA SCT020 BKN035 BKN050
     FM030030 18010KT P6SM SCT035 BKN060=



000
FTUS46 KSEW 021126
TAFSEA
TAF
KSEA 021126Z 0212/0318 18012KT P6SM SCT020 BKN060
      TEMPO 0213/0217 BKN020 OVC060
     FM021700 18012KT P6SM -SHRA BKN015 OVC030
     FM022000 21014KT P6SM -SHRA SCT015 BKN035 BKN050
     FM031300 21010KT P6SM BKN025 OVC040=



000
FTUS46 KSEW 021126
TAFBLI
TAF
KBLI 021126Z 0212/0312 16008KT P6SM -SHRA BKN020 OVC030
      TEMPO 0213/0217 4SM -TSRA BKN020CB OVC030
     FM021800 18010KT P6SM -SHRA SCT020 BKN035 BKN050
     FM030030 18010KT P6SM SCT035 BKN060=



000
FTUS46 KSEW 021126
TAFPAE
TAF
KPAE 021126Z 0212/0312 16008KT P6SM -RA SCT006 BKN018 OVC030
      TEMPO 0212/0216 2SM RA BKN006 OVC018
     FM022000 18010KT P6SM -SHRA SCT020 BKN035 BKN050
     FM030400 18010KT P6SM SCT035 BKN060=



000
FTUS46 KSEW 021126
TAFHQM
TAF
KHQM 021126Z 0212/0312 19010KT P6SM SCT020 BKN040 BKN070
      TEMPO 0212/0216 -SHRA BKN020 OVC045
     FM021600 21008KT P6SM -SHRA BKN015 OVC030
      TEMPO 0216/0220 4SM -SHRA
     FM022300 21008KT P6SM -SHRA SCT015 BKN035 OVC060
     FM030300 24008KT P6SM SCT030 BKN050=



000
FTUS46 KSEW 021126
TAFOLM
TAF
KOLM 021126Z 0212/0312 21008KT P6SM BKN050
     FM022100 21008KT P6SM -SHRA SCT020 BKN035 OVC050
     FM030300 21008KT P6SM SCT025 BKN040 BKN060=



000
FTUS46 KSEW 021126
TAFSEA
TAF
KSEA 021126Z 0212/0318 18012KT P6SM SCT020 BKN060
      TEMPO 0213/0217 BKN020 OVC060
     FM021700 18012KT P6SM -SHRA BKN015 OVC030
     FM022000 21014KT P6SM -SHRA SCT015 BKN035 BKN050
     FM031300 21010KT P6SM BKN025 OVC040=



000
FTUS46 KSEW 021126
TAFCLM
TAF
KCLM 021126Z 0212/0312 VRB03KT P6SM -SHRA SCT035 BKN060 BKN090
     FM022100 26006KT P6SM -SHRA BKN035 OVC060
     FM030300 29010KT P6SM SCT035 BKN060=



000
FTUS46 KSEW 021126
TAFPAE
TAF
KPAE 021126Z 0212/0312 16008KT P6SM -RA SCT006 BKN018 OVC030
      TEMPO 0212/0216 2SM RA BKN006 OVC018
     FM022000 18010KT P6SM -SHRA SCT020 BKN035 BKN050
     FM030400 18010KT P6SM SCT035 BKN060=



000
FTUS46 KSEW 021126
TAFOLM
TAF
KOLM 021126Z 0212/0312 21008KT P6SM BKN050
     FM022100 21008KT P6SM -SHRA SCT020 BKN035 OVC050
     FM030300 21008KT P6SM SCT025 BKN040 BKN060=



000
FTUS46 KSEW 021126
TAFCLM
TAF
KCLM 021126Z 0212/0312 VRB03KT P6SM -SHRA SCT035 BKN060 BKN090
     FM022100 26006KT P6SM -SHRA BKN035 OVC060
     FM030300 29010KT P6SM SCT035 BKN060=



000
FTUS46 KSEW 021126
TAFHQM
TAF
KHQM 021126Z 0212/0312 19010KT P6SM SCT020 BKN040 BKN070
      TEMPO 0212/0216 -SHRA BKN020 OVC045
     FM021600 21008KT P6SM -SHRA BKN015 OVC030
      TEMPO 0216/0220 4SM -SHRA
     FM022300 21008KT P6SM -SHRA SCT015 BKN035 OVC060
     FM030300 24008KT P6SM SCT030 BKN050=



000
FTUS46 KSEW 021126
TAFBFI
TAF
KBFI 021126Z 0212/0312 17008KT P6SM SCT022 BKN060
      TEMPO 0212/0216 BKN022 OVC060
     FM021600 17008KT P6SM -SHRA BKN020 OVC035
     FM022000 19010KT P6SM -SHRA SCT020 BKN040 BKN060=



000
FTUS46 KSEW 020911 AAA
TAFSEA
TAF AMD
KSEA 020911Z 0209/0312 18012KT P6SM SCT020 BKN060
     FM021600 18012KT P6SM -SHRA BKN015 OVC030
     FM021900 21014KT P6SM -SHRA SCT015 BKN035 BKN050
     FM030300 21010KT P6SM SCT035 BKN060=



000
FTUS46 KSEW 020539
TAFOLM
TAF
KOLM 020539Z 0206/0306 21008KT P6SM SCT030 OVC045
     FM021200 21008KT P6SM -SHRA BKN020 OVC040
     FM022000 21008KT P6SM SCT025 BKN040 BKN060=



000
FTUS46 KSEW 020539
TAFPAE
TAF
KPAE 020539Z 0206/0306 18014KT P6SM SCT020 BKN060
      TEMPO 0207/0211 -SHRA BKN020 OVC060
     FM021100 18014KT P6SM -SHRA BKN015 OVC025
     FM021800 18010KT P6SM -SHRA SCT020 BKN035 BKN050
     FM022300 18010KT P6SM SCT035 BKN060=



000
FTUS46 KSEW 020539
TAFCLM
TAF
KCLM 020539Z 0206/0306 VRB03KT P6SM SCT035 BKN060 BKN090
     FM022100 26006KT P6SM -SHRA BKN035 OVC060
     FM030300 29010KT P6SM SCT035 BKN060=



000
FTUS46 KSEW 020539
TAFSEA
TAF
KSEA 020539Z 0206/0312 18010KT P6SM SCT020 BKN060
     FM021200 18010KT P6SM -SHRA BKN015 OVC030
     FM021800 21010KT P6SM SCT015 BKN035 BKN050
     FM022200 21010KT P6SM SCT035 BKN060=



000
FTUS46 KSEW 020539
TAFBFI
TAF
KBFI 020539Z 0206/0306 18010KT P6SM SCT020 BKN060
     FM021200 18010KT P6SM -SHRA BKN020 OVC035
     FM021800 18010KT P6SM SCT020 BKN040 BKN060
     FM022200 18010KT P6SM SCT040 BKN060=



000
FTUS46 KSEW 020539
TAFHQM
TAF
KHQM 020539Z 0206/0306 19010KT P6SM SCT030 BKN045 OVC070
     FM021700 21008KT P6SM -SHRA BKN015 OVC030
      TEMPO 0217/0221 4SM -SHRA
     FM022300 21008KT P6SM -SHRA SCT015 BKN035 OVC060=



000
FTUS46 KSEW 020539
TAFBLI
TAF
KBLI 020539Z 0206/0306 16008KT P6SM SCT020 BKN045
      TEMPO 0206/0210 -SHRA BKN020 OVC045
     FM021400 18010KT P6SM -SHRA BKN020 OVC030
     FM021800 18010KT P6SM -SHRA SCT020 BKN035 BKN050
     FM022300 18010KT P6SM SCT035 BKN060=



000
FTUS46 KSEW 020539
TAFPAE
TAF
KPAE 020539Z 0206/0306 18014KT P6SM SCT020 BKN060
      TEMPO 0207/0211 -SHRA BKN020 OVC060
     FM021100 18014KT P6SM -SHRA BKN015 OVC025
     FM021800 18010KT P6SM -SHRA SCT020 BKN035 BKN050
     FM022300 18010KT P6SM SCT035 BKN060=



000
FTUS46 KSEW 020539
TAFOLM
TAF
KOLM 020539Z 0206/0306 21008KT P6SM SCT030 OVC045
     FM021200 21008KT P6SM -SHRA BKN020 OVC040
     FM022000 21008KT P6SM SCT025 BKN040 BKN060=



000
FTUS46 KSEW 020539
TAFHQM
TAF
KHQM 020539Z 0206/0306 19010KT P6SM SCT030 BKN045 OVC070
     FM021700 21008KT P6SM -SHRA BKN015 OVC030
      TEMPO 0217/0221 4SM -SHRA
     FM022300 21008KT P6SM -SHRA SCT015 BKN035 OVC060=



000
FTUS46 KSEW 020539
TAFBFI
TAF
KBFI 020539Z 0206/0306 18010KT P6SM SCT020 BKN060
     FM021200 18010KT P6SM -SHRA BKN020 OVC035
     FM021800 18010KT P6SM SCT020 BKN040 BKN060
     FM022200 18010KT P6SM SCT040 BKN060=



000
FTUS46 KSEW 020539
TAFCLM
TAF
KCLM 020539Z 0206/0306 VRB03KT P6SM SCT035 BKN060 BKN090
     FM022100 26006KT P6SM -SHRA BKN035 OVC060
     FM030300 29010KT P6SM SCT035 BKN060=



000
FTUS46 KSEW 020539
TAFSEA
TAF
KSEA 020539Z 0206/0312 18010KT P6SM SCT020 BKN060
     FM021200 18010KT P6SM -SHRA BKN015 OVC030
     FM021800 21010KT P6SM SCT015 BKN035 BKN050
     FM022200 21010KT P6SM SCT035 BKN060=



000
FTUS46 KSEW 020539
TAFBLI
TAF
KBLI 020539Z 0206/0306 16008KT P6SM SCT020 BKN045
      TEMPO 0206/0210 -SHRA BKN020 OVC045
     FM021400 18010KT P6SM -SHRA BKN020 OVC030
     FM021800 18010KT P6SM -SHRA SCT020 BKN035 BKN050
     FM022300 18010KT P6SM SCT035 BKN060=



000
FTUS46 KSEW 020315 AAA
TAFSEA
TAF AMD
KSEA 020315Z 0203/0306 19007KT P6SM -SHRA BKN030 OVC060
     FM020900 22008KT P6SM -RA BKN025 OVC040
     FM021200 19008KT P6SM -SHRA BKN015 OVC040
     FM021600 19010KT P6SM BKN030 OVC060
     FM022000 21008KT P6SM BKN040 BKN080=



000
FTUS46 KSEW 020315 AAA
TAFSEA
TAF AMD
KSEA 020315Z 0203/0306 19007KT P6SM -SHRA BKN030 OVC060
     FM020900 22008KT P6SM -RA BKN025 OVC040
     FM021200 19008KT P6SM -SHRA BKN015 OVC040
     FM021600 19010KT P6SM BKN030 OVC060
     FM022000 21008KT P6SM BKN040 BKN080=



000
FTUS46 KSEW 012344
TAFBFI
TAF
KBFI 012344Z 0200/0224 19010KT P6SM BKN050 OVC070
     FM020900 16008KT P6SM -RA BKN030 OVC040
     FM021200 16008KT P6SM -SHRA BKN020 OVC040
     FM021600 18010KT P6SM BKN035 OVC060
     FM022000 19008KT P6SM BKN040 BKN080=



000
FTUS46 KSEW 012344
TAFBLI
TAF
KBLI 012344Z 0200/0224 14005KT P6SM SCT015 OVC050
     FM020800 17006KT P6SM -RA BKN030 OVC040
     FM021200 18006KT P6SM -SHRA BKN025 OVC040
     FM021600 18008KT P6SM BKN035 OVC060
     FM022000 18010KT P6SM BKN040 BKN080=



000
FTUS46 KSEW 012344
TAFSEA
TAF
KSEA 012344Z 0200/0306 19007KT P6SM -SHRA BKN030 OVC060
     FM020900 22008KT P6SM -RA BKN025 OVC040
     FM021200 19008KT P6SM -SHRA BKN015 OVC040
     FM021600 19010KT P6SM BKN030 OVC060
     FM022000 21008KT P6SM BKN040 BKN080=



000
FTUS46 KSEW 012344
TAFHQM
TAF
KHQM 012344Z 0200/0224 28005KT P6SM OVC009
     FM020200 22008KT P6SM BKN040 OVC060
     FM020600 22008KT P6SM -RA BKN025 OVC040
     FM021000 23008KT P6SM -SHRA BKN015 OVC040
     FM021600 21008KT P6SM BKN020 OVC040
     FM022000 21010KT P6SM BKN040 BKN080=



000
FTUS46 KSEW 012344
TAFOLM
TAF
KOLM 012344Z 0200/0224 22008KT P6SM -SHRA BKN025 OVC050
     FM020900 22008KT P6SM -RA BKN025 OVC040
     FM021000 21008KT P6SM -SHRA BKN015 OVC040
     FM021600 20010KT P6SM BKN030 OVC060
     FM022000 21010KT P6SM BKN040 BKN080=



000
FTUS46 KSEW 012344
TAFPAE
TAF
KPAE 012344Z 0200/0224 17010KT P6SM SCT030 OVC060
     FM020900 16008KT P6SM -RA BKN025 OVC040
     FM021200 16006KT P6SM -SHRA BKN015 OVC040
     FM021600 17008KT P6SM BKN025 OVC060
     FM022100 21008KT P6SM BKN040 BKN080=



000
FTUS46 KSEW 012344
TAFCLM
TAF
KCLM 012344Z 0200/0224 VRB03KT P6SM SCT030 OVC060
     FM020600 29004KT P6SM -RA BKN025 OVC040
     FM021000 26006KT P6SM -SHRA BKN015 OVC040
     FM021600 31006KT P6SM BKN030 OVC060
     FM022000 33005KT P6SM BKN040 BKN080=



000
FTUS46 KSEW 012202 AAB
TAFSEA
TAF AMD
KSEA 012202Z 0122/0224 23008KT P6SM -SHRA SCT020 OVC030
     FM020900 22008KT P6SM BKN025 OVC040
     FM021200 19008KT P6SM BKN015 OVC040
     FM021600 19010KT P6SM BKN030 OVC060=



000
FTUS46 KSEW 012202 AAB
TAFSEA
TAF AMD
KSEA 012202Z 0122/0224 23008KT P6SM -SHRA SCT020 OVC030
     FM020900 22008KT P6SM BKN025 OVC040
     FM021200 19008KT P6SM BKN015 OVC040
     FM021600 19010KT P6SM BKN030 OVC060=



000
FTUS46 KSEW 012119 AAA
TAFSEA
TAF AMD
KSEA 012119Z 0121/0224 22015G25KT P6SM BKN025 OVC040
     FM012300 22008KT P6SM -SHRA SCT030 BKN050
     FM020900 22008KT P6SM BKN025 OVC040
     FM021200 19008KT P6SM BKN015 OVC040
     FM021600 19010KT P6SM BKN030 OVC060=



000
FTUS46 KSEW 012119 AAA
TAFSEA
TAF AMD
KSEA 012119Z 0121/0224 22015G25KT P6SM BKN025 OVC040
     FM012300 22008KT P6SM -SHRA SCT030 BKN050
     FM020900 22008KT P6SM BKN025 OVC040
     FM021200 19008KT P6SM BKN015 OVC040
     FM021600 19010KT P6SM BKN030 OVC060=



000
FTUS46 KSEW 011744
TAFOLM
TAF
KOLM 011744Z 0118/0218 28006KT 3SM -RA BR BKN010 OVC020
     FM011900 22010KT P6SM -SHRA BKN025 OVC050
     FM012000 20008KT P6SM -SHRA SCT030 BKN045
     FM020800 20008KT P6SM BKN022 OVC035=



000
FTUS46 KSEW 011744
TAFCLM
TAF
KCLM 011744Z 0118/0218 VRB03KT P6SM VCSH SCT015 OVC035
     FM012000 VRB03KT P6SM SCT030 BKN045
     FM021200 28003KT P6SM BKN015 OVC030=



000
FTUS46 KSEW 011744
TAFPAE
TAF
KPAE 011744Z 0118/0218 18012KT 5SM -RA BR BKN007 OVC015
     FM012000 18010KT P6SM BKN025 OVC050
     FM012300 18008KT P6SM -SHRA SCT030 BKN050
     FM020900 17008KT P6SM BKN025 OVC040
     FM021200 18010KT P6SM BKN015 OVC040=



000
FTUS46 KSEW 011744
TAFHQM
TAF
KHQM 011744Z 0118/0218 19010KT P6SM VCSH BKN010 BKN020
     FM012100 23008KT P6SM BKN020 OVC035
     FM020700 23008KT P6SM BKN022 OVC035
     FM021500 23006KT P6SM BKN030 OVC050=



000
FTUS46 KSEW 011744
TAFSEA
TAF
KSEA 011744Z 0118/0224 22010G20KT 3SM -RA SCT020 OVC025
     FM011900 22010KT P6SM BKN025 OVC050
     FM012200 22008KT P6SM -SHRA SCT030 BKN050
     FM020900 22008KT P6SM BKN025 OVC040
     FM021200 19008KT P6SM BKN015 OVC040
     FM021600 19010KT P6SM BKN030 OVC060=



000
FTUS46 KSEW 011744
TAFBFI
TAF
KBFI 011744Z 0118/0218 19004KT P6SM OVC030
     FM011900 19008KT P6SM BKN030 OVC050
     FM012200 19010KT P6SM -SHRA SCT035 BKN050
     FM020900 16006KT P6SM BKN030 OVC040
     FM021200 16008KT P6SM BKN020 OVC040=



000
FTUS46 KSEW 011744
TAFBLI
TAF
KBLI 011744Z 0118/0218 20008KT P6SM -SHRA OVC050
     FM011900 22010KT P6SM BKN025 OVC050
     FM012300 18008KT P6SM -SHRA SCT030 BKN050
     FM020900 17008KT P6SM BKN025 OVC040
     FM021200 17008KT P6SM BKN015 OVC040=



000
FTUS46 KSEW 011526 AAB
TAFSEA
TAF AMD
KSEA 011526Z 0115/0218 21010KT 3SM -RA BR BKN006 OVC020
     FM011800 19008KT P6SM -RA SCT020 BKN025 OVC050
     FM012200 22008KT P6SM -SHRA SCT030 BKN050
     FM020900 22008KT P6SM BKN025 OVC040=



000
FTUS46 KSEW 011410 AAA
TAFCLM
TAF AMD
KCLM 011410Z 0114/0212 VRB03KT P6SM BKN070
      TEMPO 0114/0117 1 1/2SM -RA BR BKN010 OVC025
     FM011700 VRB03KT P6SM VCSH SCT015 BKN025 OVC040
     FM012000 VRB03KT P6SM SCT030 BKN045=



000
FTUS46 KSEW 011410 AAA
TAFCLM
TAF AMD
KCLM 011410Z 0114/0212 VRB03KT P6SM BKN070
      TEMPO 0114/0117 1 1/2SM -RA BR BKN010 OVC025
     FM011700 VRB03KT P6SM VCSH SCT015 BKN025 OVC040
     FM012000 VRB03KT P6SM SCT030 BKN045=



000
FTUS46 KSEW 011408 AAA
TAFSEA
TAF AMD
KSEA 011408Z 0114/0218 21008KT P6SM -RA BKN020 OVC035
     FM011900 19008KT P6SM -RA SCT020 BKN035 OVC050
     FM012200 22008KT P6SM -SHRA SCT030 BKN050
     FM020900 22008KT P6SM BKN025 OVC040=



000
FTUS46 KSEW 011408 AAA
TAFSEA
TAF AMD
KSEA 011408Z 0114/0218 21008KT P6SM -RA BKN020 OVC035
     FM011900 19008KT P6SM -RA SCT020 BKN035 OVC050
     FM012200 22008KT P6SM -SHRA SCT030 BKN050
     FM020900 22008KT P6SM BKN025 OVC040=



000
FTUS46 KSEW 011408 AAA
TAFBFI
TAF AMD
KBFI 011408Z 0114/0212 17008KT P6SM -RA BKN020 OVC040
     FM011900 17008KT P6SM -RA SCT025 BKN040 OVC060
     FM012200 19008KT P6SM -SHRA SCT035 BKN050
     FM020900 19008KT P6SM BKN028 OVC045=



000
FTUS46 KSEW 011408 AAA
TAFBFI
TAF AMD
KBFI 011408Z 0114/0212 17008KT P6SM -RA BKN020 OVC040
     FM011900 17008KT P6SM -RA SCT025 BKN040 OVC060
     FM012200 19008KT P6SM -SHRA SCT035 BKN050
     FM020900 19008KT P6SM BKN028 OVC045=



000
FTUS46 KSEW 011344 AAA
TAFPAE
TAF AMD
KPAE 011344Z 0114/0212 35003KT 2SM -RA BR BKN010 OVC013
      TEMPO 0114/0118 -RA BKN020 OVC040
     FM011800 19008KT P6SM -SHRA SCT025 BKN045
     FM021000 19008KT P6SM BKN022 OVC035=



000
FTUS46 KSEW 011344 AAA
TAFHQM
TAF AMD
KHQM 011344Z 0114/0212 20010KT 2SM -RA BR SCT008 BKN016 OVC026
      TEMPO 0114/0118 5SM -RA BKN020 OVC035
     FM011800 23008KT P6SM VCSH BKN025 BKN050
     FM012100 23008KT P6SM SCT030 BKN045
     FM020700 23008KT P6SM BKN022 OVC035=



000
FTUS46 KSEW 011344 AAA
TAFHQM
TAF AMD
KHQM 011344Z 0114/0212 20010KT 2SM -RA BR SCT008 BKN016 OVC026
      TEMPO 0114/0118 5SM -RA BKN020 OVC035
     FM011800 23008KT P6SM VCSH BKN025 BKN050
     FM012100 23008KT P6SM SCT030 BKN045
     FM020700 23008KT P6SM BKN022 OVC035=



000
FTUS46 KSEW 011344 AAA
TAFPAE
TAF AMD
KPAE 011344Z 0114/0212 35003KT 2SM -RA BR BKN010 OVC013
      TEMPO 0114/0118 -RA BKN020 OVC040
     FM011800 19008KT P6SM -SHRA SCT025 BKN045
     FM021000 19008KT P6SM BKN022 OVC035=



000
FTUS46 KSEW 011124
TAFSEA
TAF
KSEA 011124Z 0112/0218 19012KT P6SM BKN035 OVC050
     FM011500 19010KT P6SM -RA BKN020 OVC035
     FM011900 19008KT P6SM -RA SCT020 BKN035 OVC050
     FM012200 22008KT P6SM -SHRA SCT030 BKN050
     FM020900 22008KT P6SM BKN025 OVC040=



000
FTUS46 KSEW 011124
TAFBLI
TAF
KBLI 011124Z 0112/0212 16010KT P6SM -RA BKN020 OVC035
     FM011800 20008KT P6SM -SHRA BKN025 BKN050
     FM012300 20008KT P6SM SCT025 BKN045
     FM020900 20008KT P6SM BKN025 OVC040=



000
FTUS46 KSEW 011124
TAFPAE
TAF
KPAE 011124Z 0112/0212 19015G25KT P6SM -RA BKN020 OVC040
     FM011800 19008KT P6SM -SHRA SCT025 BKN045
     FM021000 19008KT P6SM BKN022 OVC035=



000
FTUS46 KSEW 011124
TAFCLM
TAF
KCLM 011124Z 0112/0212 VRB03KT P6SM -RA SCT005 BKN011 OVC020
      TEMPO 0112/0116 3SM -RA
     FM011600 VRB03KT P6SM VCSH SCT015 BKN025 OVC040
     FM012000 VRB03KT P6SM SCT030 BKN045=



000
FTUS46 KSEW 011124
TAFOLM
TAF
KOLM 011124Z 0112/0212 20010KT P6SM BKN035 OVC060
     FM011500 20008KT P6SM -RA BKN020 OVC040
     FM012000 20008KT P6SM -SHRA SCT030 BKN045
     FM020800 20008KT P6SM BKN022 OVC035=



000
FTUS46 KSEW 011124
TAFHQM
TAF
KHQM 011124Z 0112/0212 20012KT 5SM -RA BKN020 OVC035
     FM011800 23008KT P6SM VCSH BKN025 BKN050
     FM012100 23008KT P6SM SCT030 BKN045
     FM020700 23008KT P6SM BKN022 OVC035=



000
FTUS46 KSEW 011124
TAFBFI
TAF
KBFI 011124Z 0112/0212 17008KT P6SM BKN035 OVC050
     FM011500 17008KT P6SM -RA BKN025 OVC040
     FM011900 17008KT P6SM -RA SCT025 BKN040 OVC060
     FM012200 19008KT P6SM -SHRA SCT035 BKN050
     FM020900 19008KT P6SM BKN028 OVC045=



000
FTUS46 KSEW 011124
TAFBLI
TAF
KBLI 011124Z 0112/0212 16010KT P6SM -RA BKN020 OVC035
     FM011800 20008KT P6SM -SHRA BKN025 BKN050
     FM012300 20008KT P6SM SCT025 BKN045
     FM020900 20008KT P6SM BKN025 OVC040=



000
FTUS46 KSEW 011124
TAFBFI
TAF
KBFI 011124Z 0112/0212 17008KT P6SM BKN035 OVC050
     FM011500 17008KT P6SM -RA BKN025 OVC040
     FM011900 17008KT P6SM -RA SCT025 BKN040 OVC060
     FM012200 19008KT P6SM -SHRA SCT035 BKN050
     FM020900 19008KT P6SM BKN028 OVC045=



000
FTUS46 KSEW 011124
TAFOLM
TAF
KOLM 011124Z 0112/0212 20010KT P6SM BKN035 OVC060
     FM011500 20008KT P6SM -RA BKN020 OVC040
     FM012000 20008KT P6SM -SHRA SCT030 BKN045
     FM020800 20008KT P6SM BKN022 OVC035=



000
FTUS46 KSEW 011124
TAFSEA
TAF
KSEA 011124Z 0112/0218 19012KT P6SM BKN035 OVC050
     FM011500 19010KT P6SM -RA BKN020 OVC035
     FM011900 19008KT P6SM -RA SCT020 BKN035 OVC050
     FM012200 22008KT P6SM -SHRA SCT030 BKN050
     FM020900 22008KT P6SM BKN025 OVC040=



000
FTUS46 KSEW 011124
TAFPAE
TAF
KPAE 011124Z 0112/0212 19015G25KT P6SM -RA BKN020 OVC040
     FM011800 19008KT P6SM -SHRA SCT025 BKN045
     FM021000 19008KT P6SM BKN022 OVC035=



000
FTUS46 KSEW 011124
TAFHQM
TAF
KHQM 011124Z 0112/0212 20012KT 5SM -RA BKN020 OVC035
     FM011800 23008KT P6SM VCSH BKN025 BKN050
     FM012100 23008KT P6SM SCT030 BKN045
     FM020700 23008KT P6SM BKN022 OVC035=



000
FTUS46 KSEW 011124
TAFCLM
TAF
KCLM 011124Z 0112/0212 VRB03KT P6SM -RA SCT005 BKN011 OVC020
      TEMPO 0112/0116 3SM -RA
     FM011600 VRB03KT P6SM VCSH SCT015 BKN025 OVC040
     FM012000 VRB03KT P6SM SCT030 BKN045=



    US Dept of Commerce
    National Oceanic and Atmospheric Administration
    National Weather Service
    1325 East West Highway
    Silver Spring, MD 20910
    Page Author: NWS Internet Services Team
Disclaimer
Information Quality
Credits
Glossary
Privacy Policy
Freedom of Information Act (FOIA)
About Us
Career Opportunities